Time;durP1;ratioP1;P1;durP2;ratioP2;P2;SDS_P1;SDS_P2;PMS_P1;PMS_P2;Temp;Humidity;BMP_temperature;BMP_pressure;BME280_temperature;BME280_humidity;BME280_pressure;Samples;Min_cycle;Max_cycle;Signal;HPM_P1;HPM_P2
2021/07/07 00:01:15;;;;;;;20.37;12.85;;;;;;;17.72;80.99;97895.28;1730423;82;20854;-72
2021/07/07 00:03:41;;;;;;;19.25;12.65;;;;;;;17.66;80.70;97895.19;1730825;82;20922;-71
2021/07/07 00:06:07;;;;;;;16.23;12.70;;;;;;;17.60;82.36;97899.23;1730872;83;21111;-73
2021/07/07 00:08:33;;;;;;;17.02;13.08;;;;;;;17.63;81.48;97901.91;1709473;83;20886;-71
2021/07/07 00:11:01;;;;;;;15.60;12.35;;;;;;;17.57;82.12;97896.36;1731005;83;21363;-73
2021/07/07 00:13:27;;;;;;;17.30;12.35;;;;;;;17.56;82.54;97898.86;1730681;82;20930;-72
2021/07/07 00:15:53;;;;;;;17.17;13.58;;;;;;;17.57;81.76;97897.73;1730107;82;20917;-71
2021/07/07 00:18:19;;;;;;;15.18;12.45;;;;;;;17.48;81.83;97895.02;1730693;82;20850;-73
2021/07/07 00:20:54;;;;;;;18.90;14.07;;;;;;;17.44;80.74;97898.19;1730284;83;21521;-71
2021/07/07 00:23:25;;;;;;;14.55;12.63;;;;;;;17.28;82.10;97898.47;1729714;83;21156;-72
2021/07/07 00:25:51;;;;;;;15.53;13.40;;;;;;;17.23;81.49;97892.59;1730875;82;21013;-73
2021/07/07 00:28:18;;;;;;;13.75;11.43;;;;;;;17.14;83.58;97895.35;1730918;82;20977;-73
2021/07/07 00:30:45;;;;;;;16.87;13.83;;;;;;;17.14;81.95;97895.35;1731665;82;21492;-73
2021/07/07 00:33:12;;;;;;;17.23;13.28;;;;;;;17.14;82.74;97895.92;1731492;82;21033;-74
2021/07/07 00:35:38;;;;;;;17.05;13.10;;;;;;;17.17;84.12;97891.95;1730729;82;21980;-72
2021/07/07 00:38:04;;;;;;;15.90;12.37;;;;;;;17.22;83.63;97892.36;1730563;82;21017;-74
2021/07/07 00:40:30;;;;;;;16.73;12.58;;;;;;;17.25;84.19;97894.44;1731528;82;20894;-73
2021/07/07 00:42:56;;;;;;;18.17;13.62;;;;;;;17.24;83.17;97894.77;1730346;83;20889;-72
2021/07/07 00:45:22;;;;;;;18.73;14.28;;;;;;;17.14;84.14;97891.81;1731019;83;20890;-73
2021/07/07 00:47:48;;;;;;;18.62;14.03;;;;;;;17.12;83.30;97900.92;1730239;82;20898;-74
2021/07/07 00:50:15;;;;;;;14.85;12.70;;;;;;;17.08;83.55;97903.48;1730870;82;20858;-72
2021/07/07 00:52:41;;;;;;;16.60;12.68;;;;;;;17.03;84.13;97902.30;1729942;82;21493;-74
2021/07/07 00:55:12;;;;;;;17.55;14.25;;;;;;;16.99;83.66;97905.44;1708918;82;47441;-74
2021/07/07 00:57:38;;;;;;;19.10;14.60;;;;;;;16.93;83.57;97900.47;1730414;82;21409;-74
2021/07/07 01:00:10;;;;;;;20.40;15.70;;;;;;;16.89;82.68;97905.77;1730876;82;21900;-73
2021/07/07 01:02:37;;;;;;;18.05;15.10;;;;;;;16.89;82.45;97902.47;1729317;82;21053;-72
2021/07/07 01:05:05;;;;;;;20.17;14.20;;;;;;;16.89;82.52;97903.84;1730627;82;20989;-72
2021/07/07 01:07:31;;;;;;;17.83;14.23;;;;;;;16.89;82.63;97905.77;1738683;80;20914;-73
2021/07/07 01:09:57;;;;;;;16.67;12.88;;;;;;;16.89;83.39;97900.30;1769876;81;21009;-72
2021/07/07 01:12:23;;;;;;;19.48;12.78;;;;;;;16.91;82.74;97898.03;1770036;81;21191;-74
2021/07/07 01:14:50;;;;;;;17.00;13.30;;;;;;;16.88;82.51;97898.70;1769781;81;20884;-73
2021/07/07 01:17:19;;;;;;;15.38;12.05;;;;;;;16.85;83.11;97904.83;1769386;80;20980;-74
2021/07/07 01:19:46;;;;;;;21.25;11.40;;;;;;;16.79;82.86;97901.44;1769924;80;20937;-73
2021/07/07 01:22:12;;;;;;;19.05;12.30;;;;;;;16.72;82.29;97907.95;1769337;80;20976;-72
2021/07/07 01:24:38;;;;;;;16.75;13.53;;;;;;;16.65;82.87;97906.23;1769044;80;21005;-72
2021/07/07 01:27:04;;;;;;;20.12;11.20;;;;;;;16.62;83.12;97910.42;1770270;80;20873;-72
2021/07/07 01:29:30;;;;;;;16.75;13.78;;;;;;;16.62;82.83;97910.42;1768699;80;20850;-73
2021/07/07 01:31:56;;;;;;;19.57;12.85;;;;;;;16.58;82.96;97907.30;1769595;80;20908;-73
2021/07/07 01:34:22;;;;;;;16.10;13.38;;;;;;;16.52;83.51;97903.10;1748070;81;21019;-73
2021/07/07 01:36:48;;;;;;;15.90;12.88;;;;;;;16.54;83.03;97904.95;1769676;80;21182;-71
2021/07/07 01:39:14;;;;;;;16.07;11.05;;;;;;;16.60;82.19;97906.41;1769948;80;20896;-72
2021/07/07 01:41:40;;;;;;;12.78;10.95;;;;;;;16.58;82.59;97904.00;1769927;80;21522;-74
2021/07/07 01:44:06;;;;;;;14.07;11.25;;;;;;;16.57;82.84;97905.09;1770452;80;20806;-72
2021/07/07 01:46:32;;;;;;;17.60;10.60;;;;;;;16.59;83.69;97900.70;1769751;80;20977;-72
2021/07/07 01:48:59;;;;;;;12.15;10.20;;;;;;;16.62;83.91;97901.41;1770150;80;21913;-71
2021/07/07 01:51:25;;;;;;;15.75;11.22;;;;;;;16.63;84.41;97898.34;1770084;80;20949;-74
2021/07/07 01:53:51;;;;;;;16.75;10.58;;;;;;;16.69;83.89;97898.23;1767659;80;21570;-74
2021/07/07 01:56:17;;;;;;;14.40;11.90;;;;;;;16.68;83.71;97900.13;1770331;80;20880;-72
2021/07/07 01:58:43;;;;;;;14.68;11.73;;;;;;;16.68;83.61;97899.33;1769751;81;21428;-71
2021/07/07 02:01:11;;;;;;;14.78;13.13;;;;;;;16.67;83.49;97901.27;1769930;80;21148;-74
2021/07/07 02:03:37;;;;;;;15.40;12.83;;;;;;;16.60;83.62;97897.64;1770346;80;20937;-74
2021/07/07 02:06:03;;;;;;;16.48;13.60;;;;;;;16.54;84.03;97900.84;1769895;80;20865;-72
2021/07/07 02:08:29;;;;;;;17.17;12.78;;;;;;;16.46;83.78;97907.11;1769876;80;20884;-72
2021/07/07 02:10:55;;;;;;;18.42;14.40;;;;;;;16.36;84.30;97906.86;1769853;81;21007;-72
2021/07/07 02:13:21;;;;;;;15.78;12.88;;;;;;;16.31;84.82;97913.28;1769266;80;21325;-74
2021/07/07 02:15:47;;;;;;;18.98;13.28;;;;;;;16.25;83.83;97906.38;1769465;81;20920;-72
2021/07/07 02:18:13;;;;;;;15.95;12.05;;;;;;;16.18;83.30;97911.50;1769803;80;21495;-73
2021/07/07 02:20:41;;;;;;;15.78;12.35;;;;;;;16.11;83.45;97911.16;1769348;80;20817;-72
2021/07/07 02:23:09;;;;;;;13.70;11.88;;;;;;;16.03;83.24;97904.55;1769778;80;20997;-72
2021/07/07 02:25:37;;;;;;;16.25;12.30;;;;;;;15.98;83.40;97909.34;1770159;80;21511;-72
2021/07/07 02:28:03;;;;;;;15.25;11.45;;;;;;;15.97;82.86;97909.10;1769639;80;20949;-72
2021/07/07 02:30:31;;;;;;;17.67;12.15;;;;;;;15.90;83.41;97905.48;1770264;80;21425;-72
2021/07/07 02:32:58;;;;;;;15.17;11.73;;;;;;;15.88;83.48;97904.17;1770062;80;20934;-72
2021/07/07 02:35:27;;;;;;;15.03;12.25;;;;;;;15.84;84.12;97902.66;1770073;80;22095;-74
2021/07/07 02:37:54;;;;;;;14.07;12.58;;;;;;;15.84;84.39;97908.67;1769962;80;21065;-74
2021/07/07 02:40:25;;;;;;;17.12;12.80;;;;;;;15.83;84.50;97910.61;1770165;80;21275;-73
2021/07/07 02:42:52;;;;;;;18.25;13.78;;;;;;;15.79;85.20;97915.88;1769436;80;21231;-73
2021/07/07 02:45:18;;;;;;;18.30;13.62;;;;;;;15.83;84.77;97916.63;1768769;80;20905;-71
2021/07/07 02:47:44;;;;;;;18.10;13.48;;;;;;;15.81;85.27;97918.31;1770075;80;21625;-73
2021/07/07 02:50:12;;;;;;;16.50;13.05;;;;;;;15.78;84.80;97917.00;1769938;80;21282;-72
2021/07/07 02:52:39;;;;;;;17.37;11.50;;;;;;;15.78;84.63;97925.20;1768123;80;20949;-73
2021/07/07 02:55:09;;;;;;;14.03;11.18;;;;;;;15.80;84.80;97926.24;1770272;80;20941;-71
2021/07/07 03:00:21;;;;;;;16.93;12.05;;;;;;;15.84;84.06;97930.53;1769994;80;20886;-72
2021/07/07 03:02:47;;;;;;;16.30;13.13;;;;;;;15.86;83.98;97932.38;1769548;80;21433;-74
2021/07/07 03:05:13;;;;;;;16.85;12.35;;;;;;;15.86;83.48;97941.38;1769999;80;20822;-72
2021/07/07 03:07:39;;;;;;;17.57;13.03;;;;;;;15.83;83.80;97944.76;1770520;80;20937;-73
2021/07/07 03:10:10;;;;;;;15.43;11.53;;;;;;;15.82;83.45;97940.41;1767972;80;20926;-73
2021/07/07 03:12:36;;;;;;;24.47;13.65;;;;;;;15.76;84.37;97941.11;1767921;81;21008;-71
2021/07/07 03:15:04;;;;;;;15.75;11.75;;;;;;;15.76;84.34;97938.94;1768019;80;20940;-73
2021/07/07 03:17:30;;;;;;;16.30;12.17;;;;;;;15.82;83.77;97944.52;1768034;80;20929;-71
2021/07/07 03:19:56;;;;;;;15.43;11.88;;;;;;;15.84;83.94;97945.00;1767431;81;20971;-73
2021/07/07 03:22:22;;;;;;;20.27;12.07;;;;;;;15.89;84.08;97947.57;1767811;80;20838;-73
2021/07/07 03:24:48;;;;;;;15.68;11.68;;;;;;;15.91;84.30;97951.37;1768198;80;20888;-72
2021/07/07 03:27:14;;;;;;;16.77;12.10;;;;;;;15.89;84.04;97954.96;1767827;81;21998;-73
2021/07/07 03:29:40;;;;;;;20.30;11.55;;;;;;;15.91;84.07;97957.64;1767803;81;20845;-73
2021/07/07 03:32:06;;;;;;;22.00;12.20;;;;;;;15.97;84.20;97961.83;1767837;80;20949;-74
2021/07/07 03:34:32;;;;;;;15.50;11.57;;;;;;;16.08;84.04;97963.73;1767952;81;20965;-71
2021/07/07 03:36:58;;;;;;;16.73;12.28;;;;;;;16.19;83.15;97962.88;1768172;81;20826;-72
2021/07/07 03:39:24;;;;;;;15.90;13.35;;;;;;;16.28;83.08;97964.50;1767717;80;21322;-71
2021/07/07 03:41:50;;;;;;;15.75;11.80;;;;;;;16.34;83.18;97960.51;1767524;81;21436;-73
2021/07/07 03:44:16;;;;;;;15.10;10.65;;;;;;;16.40;83.63;97960.34;1767996;80;20845;-73
2021/07/07 03:46:42;;;;;;;14.93;12.37;;;;;;;16.48;82.88;97962.28;1768027;81;20979;-73
2021/07/07 03:49:08;;;;;;;19.73;13.08;;;;;;;16.56;82.83;97969.70;1767881;81;20854;-74
2021/07/07 03:51:33;;;;;;;20.15;13.48;;;;;;;16.57;83.30;97960.36;1767578;81;21338;-71
2021/07/07 03:54:01;;;;;;;15.40;11.03;;;;;;;16.61;82.98;97964.89;1767835;80;20849;-73
2021/07/07 03:56:27;;;;;;;17.70;12.13;;;;;;;16.66;82.94;97959.81;1767662;80;20945;-72
2021/07/07 03:58:53;;;;;;;16.42;13.05;;;;;;;16.72;82.51;97964.61;1767829;81;21086;-74
2021/07/07 04:01:19;;;;;;;16.45;12.60;;;;;;;16.77;82.02;97960.36;1767551;81;21563;-72
2021/07/07 04:03:45;;;;;;;16.25;12.85;;;;;;;16.85;81.46;97963.66;1767332;81;21163;-73
2021/07/07 04:06:11;;;;;;;17.67;11.70;;;;;;;16.87;81.00;97964.13;1767941;81;20841;-73
2021/07/07 04:08:38;;;;;;;14.85;11.95;;;;;;;16.95;80.77;97969.38;1770086;80;21451;-74
2021/07/07 04:11:05;;;;;;;20.32;12.98;;;;;;;17.01;80.59;97969.45;1746403;80;21064;-72
2021/07/07 04:13:31;;;;;;;15.13;12.05;;;;;;;17.16;80.52;97978.52;1776015;80;20929;-72
2021/07/07 04:15:57;;;;;;;13.65;11.03;;;;;;;17.32;80.26;97971.42;1775584;80;21227;-74
2021/07/07 04:18:23;;;;;;;14.30;12.70;;;;;;;17.38;79.75;97977.55;1775909;80;20864;-75
2021/07/07 04:20:49;;;;;;;15.85;11.70;;;;;;;17.49;79.66;97976.06;1775480;80;20849;-72
2021/07/07 04:23:15;;;;;;;16.37;11.22;;;;;;;17.63;79.27;97967.66;1775543;80;20984;-74
2021/07/07 04:25:41;;;;;;;14.18;11.05;;;;;;;17.77;78.80;97972.38;1775759;80;21629;-74
2021/07/07 04:28:07;;;;;;;15.68;12.05;;;;;;;17.91;78.35;97972.18;1775626;80;21296;-74
2021/07/07 04:30:33;;;;;;;14.83;11.18;;;;;;;18.00;78.03;97972.38;1775783;80;21377;-72
2021/07/07 04:32:59;;;;;;;12.80;9.58;;;;;;;18.16;77.77;97976.75;1775775;80;21355;-74
2021/07/07 04:35:25;;;;;;;17.30;10.88;;;;;;;18.33;76.74;97973.91;1745437;80;21509;-74
2021/07/07 04:37:51;;;;;;;14.63;10.15;;;;;;;18.29;76.72;97973.55;1776289;80;20888;-72
2021/07/07 04:40:21;;;;;;;11.73;10.45;;;;;;;18.39;76.37;97970.42;1775728;80;20924;-73
2021/07/07 04:42:47;;;;;;;12.73;11.20;;;;;;;18.52;76.49;97976.78;1775536;80;20932;-72
2021/07/07 04:45:14;;;;;;;11.18;9.25;;;;;;;18.73;76.16;97978.23;1775220;80;20933;-75
2021/07/07 04:47:40;;;;;;;15.23;12.28;;;;;;;18.87;75.54;97984.23;1775513;80;21004;-73
2021/07/07 04:50:08;;;;;;;12.93;10.43;;;;;;;18.99;75.23;97982.95;1775733;80;21382;-72
2021/07/07 04:52:34;;;;;;;14.78;10.68;;;;;;;19.15;75.12;97982.58;1775761;80;21156;-74
2021/07/07 04:55:01;;;;;;;17.87;9.80;;;;;;;19.33;74.98;97980.47;1775711;80;21348;-74
2021/07/07 04:57:27;;;;;;;15.05;8.78;;;;;;;19.47;74.19;97980.16;1775806;80;21012;-73
2021/07/07 04:59:53;;;;;;;17.80;9.33;;;;;;;19.58;73.66;97980.58;1775791;80;20956;-74
2021/07/07 05:02:19;;;;;;;14.13;8.63;;;;;;;19.69;72.82;97977.05;1775656;80;20821;-74
2021/07/07 05:04:49;;;;;;;15.55;9.78;;;;;;;19.74;72.30;97981.55;1775640;80;21334;-74
2021/07/07 05:07:13;;;;;;;11.50;10.30;;;;;;;19.75;72.56;97976.27;1775460;80;20969;-73
2021/07/07 05:09:39;;;;;;;15.40;10.63;;;;;;;19.92;72.57;97969.77;1750405;80;20953;-72
2021/07/07 05:12:05;;;;;;;13.15;8.88;;;;;;;20.14;72.37;97972.64;1733570;82;20846;-72
2021/07/07 05:14:31;;;;;;;11.10;9.80;;;;;;;20.34;72.01;97977.23;1737187;82;20938;-73
2021/07/07 05:16:57;;;;;;;11.80;8.98;;;;;;;20.52;71.45;97980.58;1733224;82;21338;-73
2021/07/07 05:19:23;;;;;;;13.05;10.03;;;;;;;20.76;70.81;97977.77;1734149;82;20869;-72
2021/07/07 05:21:49;;;;;;;13.58;9.95;;;;;;;20.86;70.59;97975.13;1733219;82;20928;-74
2021/07/07 05:24:15;;;;;;;19.85;9.48;;;;;;;21.03;68.68;97972.09;1733212;82;21456;-73
2021/07/07 05:26:40;;;;;;;14.18;9.48;;;;;;;21.03;67.99;97976.23;1733244;82;20857;-73
2021/07/07 05:29:06;;;;;;;13.40;9.43;;;;;;;21.04;67.75;97975.08;1733571;82;20969;-72
2021/07/07 05:31:33;;;;;;;12.65;9.38;;;;;;;21.00;68.49;97979.66;1712353;82;20850;-72
2021/07/07 05:33:59;;;;;;;12.53;9.95;;;;;;;21.18;67.92;97972.48;1733004;82;20933;-73
2021/07/07 05:36:25;;;;;;;16.37;9.28;;;;;;;21.27;67.19;97974.55;1732741;82;20984;-74
2021/07/07 05:38:51;;;;;;;11.25;9.15;;;;;;;21.36;67.09;97971.06;1733209;82;20878;-72
2021/07/07 05:41:17;;;;;;;12.63;9.73;;;;;;;21.45;67.41;97971.73;1732946;82;21355;-74
2021/07/07 05:43:43;;;;;;;10.85;8.63;;;;;;;21.69;66.66;97972.16;1733124;82;20974;-73
2021/07/07 05:46:09;;;;;;;12.45;9.08;;;;;;;21.83;65.92;97968.98;1732945;82;20917;-73
2021/07/07 05:48:35;;;;;;;13.62;9.20;;;;;;;21.96;65.37;97973.24;1733171;82;20866;-73
2021/07/07 05:51:01;;;;;;;17.23;10.23;;;;;;;22.07;65.03;97963.33;1733015;82;20897;-72
2021/07/07 05:53:28;;;;;;;12.40;9.20;;;;;;;22.16;65.39;97963.95;1732828;82;21150;-74
2021/07/07 05:55:54;;;;;;;17.37;9.40;;;;;;;22.38;64.63;97964.44;1733067;82;21402;-73
2021/07/07 05:58:21;;;;;;;14.03;9.18;;;;;;;22.45;64.20;97968.17;1733179;82;20923;-72
2021/07/07 06:00:47;;;;;;;12.63;9.45;;;;;;;22.61;63.87;97970.11;1733063;82;20843;-72
2021/07/07 06:03:13;;;;;;;14.90;10.10;;;;;;;22.71;63.96;97970.34;1733356;82;21480;-72
2021/07/07 06:05:39;;;;;;;13.90;9.43;;;;;;;22.89;64.03;97974.10;1733018;82;21133;-73
2021/07/07 06:08:06;;;;;;;12.00;9.98;;;;;;;23.11;62.73;97972.02;1733054;82;20965;-74
2021/07/07 06:10:32;;;;;;;13.25;9.73;;;;;;;23.16;62.58;97966.22;1710580;82;21009;-74
2021/07/07 06:12:58;;;;;;;10.72;9.23;;;;;;;23.32;62.10;97971.06;1730771;82;20897;-72
2021/07/07 06:15:24;;;;;;;12.90;10.70;;;;;;;23.42;62.59;97964.17;1731115;83;20862;-73
2021/07/07 06:17:50;;;;;;;12.85;9.73;;;;;;;23.64;62.98;97970.33;1730717;83;21301;-73
2021/07/07 06:20:16;;;;;;;16.65;10.20;;;;;;;23.88;61.61;97966.42;1731212;82;21647;-72
2021/07/07 06:22:42;;;;;;;14.65;9.43;;;;;;;23.96;60.82;97965.17;1730730;82;21025;-73
2021/07/07 06:25:09;;;;;;;12.68;8.88;;;;;;;24.03;59.95;97968.06;1710498;82;20926;-72
2021/07/07 06:27:37;;;;;;;19.80;10.45;;;;;;;24.08;59.90;97973.27;1731300;82;21023;-74
2021/07/07 06:30:05;;;;;;;12.80;9.15;;;;;;;24.11;60.83;97971.17;1710642;83;21233;-73
2021/07/07 06:32:31;;;;;;;13.83;9.68;;;;;;;24.36;61.22;97964.69;1730556;83;21009;-73
2021/07/07 06:35:01;;;;;;;11.10;9.08;;;;;;;24.68;59.70;97967.32;1731297;83;20870;-73
2021/07/07 06:37:25;;;;;;;12.93;9.70;;;;;;;24.85;59.06;97967.95;1731106;82;21022;-73
2021/07/07 06:39:51;;;;;;;13.05;9.15;;;;;;;24.95;59.46;97973.66;1731481;82;20897;-75
2021/07/07 06:42:17;;;;;;;10.53;9.03;;;;;;;25.21;59.37;97967.84;1731467;82;21163;-74
2021/07/07 06:44:43;;;;;;;10.48;9.03;;;;;;;25.44;58.57;97970.51;1731387;82;20897;-75
2021/07/07 06:47:11;;;;;;;13.15;8.88;;;;;;;25.63;58.60;97973.68;1710544;83;20878;-74
2021/07/07 06:49:36;;;;;;;13.60;8.97;;;;;;;25.82;57.93;97975.72;1731278;83;20965;-73
2021/07/07 06:52:03;;;;;;;11.10;8.75;;;;;;;26.05;57.38;97970.55;1731265;82;21615;-75
2021/07/07 06:54:31;;;;;;;12.07;8.65;;;;;;;26.23;56.22;97963.17;1731030;82;21797;-72
2021/07/07 06:56:57;;;;;;;10.32;8.33;;;;;;;26.45;56.71;97971.13;1730685;82;20922;-73
2021/07/07 06:59:26;;;;;;;11.08;8.00;;;;;;;26.65;55.90;97967.48;1730066;82;20978;-75
2021/07/07 07:01:51;;;;;;;12.17;8.43;;;;;;;26.71;55.12;97962.56;1731258;82;20942;-75
2021/07/07 07:04:17;;;;;;;9.98;7.87;;;;;;;26.90;55.62;97966.23;1731260;83;21122;-73
2021/07/07 07:06:43;;;;;;;12.33;9.08;;;;;;;27.08;55.20;97958.02;1730866;82;21300;-75
2021/07/07 07:09:12;;;;;;;8.60;7.70;;;;;;;27.18;54.14;97956.69;1731201;80;21927;-75
2021/07/07 07:11:37;;;;;;;11.78;8.20;;;;;;;27.39;53.70;97957.95;1730992;82;21450;-74
2021/07/07 07:14:02;;;;;;;9.25;7.90;;;;;;;27.55;52.37;97961.18;1731363;82;21551;-75
2021/07/07 07:16:28;;;;;;;10.43;7.12;;;;;;;27.52;53.43;97955.02;1730990;82;20917;-74
2021/07/07 07:18:54;;;;;;;9.03;7.40;;;;;;;27.67;50.61;97955.86;1710530;82;21172;-75
2021/07/07 07:21:20;;;;;;;10.40;7.28;;;;;;;27.56;50.03;97951.64;1730705;83;20914;-75
2021/07/07 07:23:46;;;;;;;10.10;7.55;;;;;;;27.70;50.48;97949.52;1730375;82;21511;-74
2021/07/07 07:26:12;;;;;;;10.65;6.87;;;;;;;27.95;51.90;97948.96;1731153;82;20858;-75
2021/07/07 07:28:38;;;;;;;8.28;6.72;;;;;;;28.23;51.26;97949.56;1730755;83;20878;-75
2021/07/07 07:31:04;;;;;;;11.00;7.67;;;;;;;28.43;51.05;97951.36;1731014;82;22008;-74
2021/07/07 07:33:30;;;;;;;10.53;7.40;;;;;;;28.75;50.60;97948.53;1730991;82;20946;-76
2021/07/07 07:35:56;;;;;;;14.65;7.45;;;;;;;28.91;49.44;97953.09;1731133;82;20941;-75
2021/07/07 07:38:33;;;;;;;8.30;6.40;;;;;;;29.07;48.61;97947.67;1730541;82;21476;-74
2021/07/07 07:40:59;;;;;;;7.87;5.90;;;;;;;29.48;47.21;97951.47;1730826;82;21059;-73
2021/07/07 07:43:25;;;;;;;7.72;6.37;;;;;;;29.82;45.45;97952.88;1730528;82;22015;-75
2021/07/07 07:45:55;;;;;;;6.10;5.50;;;;;;;30.38;46.07;97947.48;1730875;82;20906;-75
2021/07/07 07:48:22;;;;;;;8.10;5.70;;;;;;;30.68;44.72;97940.42;1730407;82;21350;-73
2021/07/07 07:50:49;;;;;;;7.63;6.43;;;;;;;31.13;43.09;97943.33;1730854;82;20931;-73
2021/07/07 07:53:15;;;;;;;8.20;5.90;;;;;;;31.33;43.44;97944.90;1731038;82;21469;-75
2021/07/07 07:55:41;;;;;;;12.20;6.87;;;;;;;31.50;43.32;97945.08;1730967;82;22012;-75
2021/07/07 07:58:07;;;;;;;7.92;4.87;;;;;;;31.45;42.14;97943.56;1730601;82;20938;-73
2021/07/07 08:00:33;;;;;;;7.80;5.03;;;;;;;31.69;41.94;97940.20;1730704;82;21021;-74
2021/07/07 08:02:59;;;;;;;5.67;4.85;;;;;;;32.06;41.08;97939.28;1730516;83;21429;-75
2021/07/07 08:05:24;;;;;;;6.85;4.87;;;;;;;32.42;39.71;97940.91;1730624;82;20949;-74
2021/07/07 08:07:50;;;;;;;7.35;5.00;;;;;;;32.76;38.74;97946.91;1730915;82;21172;-75
2021/07/07 08:10:20;;;;;;;5.47;4.97;;;;;;;33.13;36.68;97947.81;1749429;81;21558;-74
2021/07/07 08:12:48;;;;;;;4.85;4.15;;;;;;;33.77;36.60;97947.27;1769994;80;21401;-74
2021/07/07 08:15:14;;;;;;;4.87;4.37;;;;;;;34.00;35.62;97944.92;1770211;80;21141;-76
2021/07/07 08:17:40;;;;;;;5.75;4.35;;;;;;;34.45;36.09;97945.05;1769903;80;20910;-74
2021/07/07 08:20:10;;;;;;;5.03;4.10;;;;;;;34.98;35.62;97940.03;1770048;80;22045;-74
2021/07/07 08:22:36;;;;;;;9.10;3.60;;;;;;;35.49;34.74;97940.19;1769996;80;20993;-76
2021/07/07 08:25:07;;;;;;;3.87;3.52;;;;;;;35.75;33.32;97941.00;1770170;80;21425;-76
2021/07/07 08:27:33;;;;;;;3.62;3.33;;;;;;;35.66;31.14;97941.51;1770084;80;20946;-76
2021/07/07 08:29:59;;;;;;;5.10;3.30;;;;;;;35.60;31.20;97936.42;1770106;80;20960;-76
2021/07/07 08:32:25;;;;;;;5.28;3.05;;;;;;;35.78;29.88;97937.89;1769554;81;21098;-76
2021/07/07 08:34:51;;;;;;;5.47;2.90;;;;;;;35.63;27.37;97942.39;1770516;80;20904;-76
2021/07/07 08:37:17;;;;;;;4.28;2.37;;;;;;;35.98;24.81;97943.33;1769711;80;20971;-75
2021/07/07 08:39:43;;;;;;;3.05;2.25;;;;;;;36.27;27.45;97941.16;1770455;80;20896;-76
2021/07/07 08:42:09;;;;;;;4.72;2.60;;;;;;;36.74;26.66;97941.78;1770083;80;20898;-76
2021/07/07 08:44:34;;;;;;;6.62;2.40;;;;;;;36.89;24.60;97948.53;1770098;80;21989;-75
2021/07/07 08:47:00;;;;;;;2.65;2.20;;;;;;;37.09;25.70;97949.66;1769724;81;20822;-76
2021/07/07 08:49:26;;;;;;;3.30;2.50;;;;;;;37.49;24.59;97943.33;1770049;81;20865;-75
2021/07/07 08:51:52;;;;;;;5.42;2.52;;;;;;;37.61;24.27;97946.70;1769652;80;21436;-75
2021/07/07 08:54:19;;;;;;;2.70;2.30;;;;;;;37.83;25.00;97941.02;1770152;81;20882;-76
2021/07/07 08:56:46;;;;;;;5.80;2.50;;;;;;;38.21;24.91;97944.92;1769876;81;21421;-75
2021/07/07 08:59:14;;;;;;;2.65;2.10;;;;;;;38.62;23.51;97943.59;1770375;80;26869;-75
2021/07/07 09:02:05;;;;;;;;;;;;;;;38.98;21.81;97939.25;1772655;80;20933;-75
2021/07/07 09:04:39;;;;;;;3.15;2.37;;;;;;;38.91;22.78;97943.80;1768863;81;20409;-75
2021/07/07 09:07:16;;;;;;;5.22;2.42;;;;;;;39.52;22.73;97944.69;1769868;80;20933;-74
2021/07/07 09:09:48;;;;;;;3.57;2.23;;;;;;;39.23;21.91;97950.90;1770353;80;21149;-76
2021/07/07 09:12:27;;;;;;;3.33;2.15;;;;;;;38.76;22.13;97951.34;1767094;81;20862;-75
2021/07/07 09:15:08;;;;;;;2.47;2.12;;;;;;;39.42;22.89;97948.81;1767975;81;20945;-75
2021/07/07 09:17:42;;;;;;;3.15;2.33;;;;;;;39.31;21.84;97954.98;1766968;81;20965;-75
2021/07/07 09:20:25;;;;;;;2.52;2.15;;;;;;;40.49;21.13;97945.09;1766935;79;20937;-75
2021/07/07 09:23:14;;;;;;;2.45;2.17;;;;;;;40.30;19.90;97945.19;1767671;80;21040;-75
2021/07/07 09:26:02;;;;;;;5.00;2.15;;;;;;;41.39;17.95;97956.23;1749447;81;21064;-76
2021/07/07 09:28:35;;;;;;;3.10;1.98;;;;;;;40.44;19.38;97949.40;1768515;80;20950;-74
2021/07/07 09:31:32;;;;;;;2.77;2.08;;;;;;;40.07;20.21;97955.08;1767847;81;21413;-75
2021/07/07 09:34:18;;;;;;;2.30;2.10;;;;;;;40.22;19.94;97952.48;1767961;81;21446;-74
2021/07/07 09:36:48;;;;;;;2.08;1.87;;;;;;;40.70;19.76;97956.00;1767434;81;26895;-76
2021/07/07 09:39:14;;;;;;;3.22;2.20;;;;;;;40.86;18.84;97955.56;1767485;80;20949;-74
2021/07/07 09:41:42;;;;;;;4.87;2.10;;;;;;;41.88;18.16;97958.39;1767987;80;21325;-75
2021/07/07 09:44:10;;;;;;;3.00;1.95;;;;;;;42.55;17.47;97957.84;1767340;80;20889;-76
2021/07/07 09:46:36;;;;;;;5.70;2.20;;;;;;;42.47;17.64;97955.38;1767695;81;21003;-74
2021/07/07 09:49:02;;;;;;;5.08;2.50;;;;;;;42.12;18.93;97957.44;1767633;81;21211;-75
2021/07/07 09:51:28;;;;;;;3.07;2.33;;;;;;;41.77;19.16;97960.25;1746284;81;20897;-76
2021/07/07 09:53:54;;;;;;;3.33;2.90;;;;;;;40.09;21.17;97959.66;1746288;81;20857;-76
2021/07/07 09:56:20;;;;;;;4.15;2.58;;;;;;;39.02;20.67;97968.18;1767495;81;20857;-74
2021/07/07 09:58:46;;;;;;;3.70;3.33;;;;;;;36.97;23.32;97964.59;1767746;80;20794;-76
2021/07/07 10:01:12;;;;;;;2.58;2.30;;;;;;;38.39;21.35;97968.26;1767557;81;21136;-76
2021/07/07 10:03:38;;;;;;;2.42;2.10;;;;;;;37.45;22.90;97966.08;1746356;80;20912;-74
2021/07/07 10:06:04;;;;;;;4.85;2.45;;;;;;;36.92;22.33;97960.97;1767992;81;20873;-74
2021/07/07 10:08:30;;;;;;;4.08;2.90;;;;;;;37.89;21.04;97966.64;1746806;80;20783;-74
2021/07/07 10:10:57;;;;;;;3.62;2.83;;;;;;;37.71;20.80;97965.28;1767854;80;20886;-76
2021/07/07 10:13:25;;;;;;;2.72;2.17;;;;;;;39.03;19.48;97971.80;1767522;80;20976;-76
2021/07/07 10:15:52;;;;;;;4.78;2.20;;;;;;;38.23;20.13;97969.94;1768206;80;21624;-76
2021/07/07 10:18:18;;;;;;;2.30;2.10;;;;;;;39.13;19.68;97963.48;1746657;80;20961;-76
2021/07/07 10:20:44;;;;;;;3.35;2.45;;;;;;;40.51;19.32;97956.77;1768278;81;20857;-76
2021/07/07 10:23:10;;;;;;;3.83;2.30;;;;;;;41.72;18.67;97962.38;1767819;81;20885;-74
2021/07/07 10:25:36;;;;;;;2.92;1.87;;;;;;;42.74;17.74;97957.72;1767759;81;21080;-74
2021/07/07 10:28:08;;;;;;;4.40;2.22;;;;;;;42.01;17.04;97956.63;1768287;80;20976;-76
2021/07/07 10:30:55;;;;;;;2.72;1.85;;;;;;;42.65;17.15;97954.38;1767824;80;21373;-76
2021/07/07 10:33:21;;;;;;;;;;;;;;;43.01;16.50;97950.16;1770402;80;20949;-76
2021/07/07 10:35:48;;;;;;;2.10;1.90;;;;;;;43.59;16.38;97955.95;1767888;81;20146;-76
2021/07/07 10:38:14;;;;;;;5.27;1.80;;;;;;;44.08;15.12;97953.36;1767769;80;21065;-74
2021/07/07 10:40:47;;;;;;;9.78;2.00;;;;;;;44.49;15.10;97960.91;1767519;80;20957;-76
2021/07/07 10:43:09;;;;;;;2.27;1.80;;;;;;;44.62;13.48;97953.48;1767122;80;20882;-75
2021/07/07 10:45:39;;;;;;;2.53;1.83;;;;;;;44.14;15.26;97959.92;1768266;81;20804;-75
2021/07/07 10:48:32;;;;;;;2.05;1.70;;;;;;;44.09;14.71;97958.42;1767944;80;20969;-76
2021/07/07 10:51:01;;;;;;;2.80;1.70;;;;;;;44.94;14.41;97955.56;1767866;80;21819;-75
2021/07/07 10:53:35;;;;;;;4.08;1.82;;;;;;;42.60;15.12;97962.83;1767835;81;20874;-76
2021/07/07 10:56:03;;;;;;;3.05;1.92;;;;;;;42.16;16.48;97957.42;1746941;80;21485;-77
2021/07/07 10:58:36;;;;;;;2.50;2.05;;;;;;;40.92;17.51;97953.63;1768127;80;20890;-77
2021/07/07 11:01:24;;;;;;;3.70;1.92;;;;;;;39.23;19.12;97953.73;1762897;80;20896;-70
2021/07/07 11:04:01;;;;;;;5.55;2.00;;;;;;;38.28;20.43;97951.70;1742805;81;21137;-70
2021/07/07 11:06:31;;;;;;;3.70;2.10;;;;;;;40.06;19.04;97945.78;1765913;80;20944;-70
2021/07/07 11:09:11;;;;;;;5.55;2.15;;;;;;;40.61;18.79;97942.66;1765310;80;21353;-69
2021/07/07 11:11:38;;;;;;;2.90;2.60;;;;;;;41.07;17.79;97946.56;1762274;80;21392;-70
2021/07/07 11:14:24;;;;;;;4.65;2.33;;;;;;;39.44;19.55;97944.23;1759999;80;20944;-69
2021/07/07 11:16:56;;;;;;;2.50;2.25;;;;;;;37.72;21.46;97946.28;1760647;80;21086;-70
2021/07/07 11:19:41;;;;;;;6.70;2.92;;;;;;;35.85;23.28;97951.77;1760022;81;21467;-68
2021/07/07 11:22:09;;;;;;;3.42;2.80;;;;;;;35.73;23.50;97944.90;1763527;80;20927;-68
2021/07/07 11:24:35;;;;;;;3.67;3.27;;;;;;;36.00;23.32;97944.47;1760107;80;20972;-69
2021/07/07 11:27:05;;;;;;;3.35;2.30;;;;;;;36.92;22.57;97945.44;1760263;81;20921;-70
2021/07/07 11:29:31;;;;;;;2.75;2.30;;;;;;;38.30;20.94;97949.84;1760722;81;21072;-68